sensor_id;sensor_type;location;lat;lon;timestamp;temperature;humidity
73121;DHT22;61307;49.628;-1.624;2023-02-15T00:00:21;18.00;38.20
73121;DHT22;61307;49.628;-1.624;2023-02-15T00:02:49;17.90;38.20
73121;DHT22;61307;49.628;-1.624;2023-02-15T00:05:16;17.90;38.20
73121;DHT22;61307;49.628;-1.624;2023-02-15T00:07:43;17.90;38.10
73121;DHT22;61307;49.628;-1.624;2023-02-15T00:10:11;17.90;38.10
73121;DHT22;61307;49.628;-1.624;2023-02-15T00:12:38;17.90;38.10
73121;DHT22;61307;49.628;-1.624;2023-02-15T00:15:05;18.00;38.20
73121;DHT22;61307;49.628;-1.624;2023-02-15T00:17:34;17.90;38.10
73121;DHT22;61307;49.628;-1.624;2023-02-15T00:20:01;17.90;38.10
73121;DHT22;61307;49.628;-1.624;2023-02-15T00:22:29;17.90;38.10
73121;DHT22;61307;49.628;-1.624;2023-02-15T00:24:56;17.90;38.10
73121;DHT22;61307;49.628;-1.624;2023-02-15T00:27:23;17.90;38.10
73121;DHT22;61307;49.628;-1.624;2023-02-15T00:29:50;17.90;38.10
73121;DHT22;61307;49.628;-1.624;2023-02-15T00:32:18;17.90;38.10
73121;DHT22;61307;49.628;-1.624;2023-02-15T00:34:46;17.90;38.10
73121;DHT22;61307;49.628;-1.624;2023-02-15T00:37:13;17.80;38.00
73121;DHT22;61307;49.628;-1.624;2023-02-15T00:39:40;17.80;38.00
73121;DHT22;61307;49.628;-1.624;2023-02-15T00:42:07;17.80;38.00
73121;DHT22;61307;49.628;-1.624;2023-02-15T00:44:34;17.80;38.00
73121;DHT22;61307;49.628;-1.624;2023-02-15T00:47:02;17.80;38.00
73121;DHT22;61307;49.628;-1.624;2023-02-15T00:49:29;17.80;38.00
73121;DHT22;61307;49.628;-1.624;2023-02-15T00:51:58;17.80;38.00
73121;DHT22;61307;49.628;-1.624;2023-02-15T00:54:25;17.80;38.00
73121;DHT22;61307;49.628;-1.624;2023-02-15T00:56:52;17.80;37.90
73121;DHT22;61307;49.628;-1.624;2023-02-15T00:59:19;17.80;38.00
73121;DHT22;61307;49.628;-1.624;2023-02-15T01:01:46;17.80;38.00
73121;DHT22;61307;49.628;-1.624;2023-02-15T01:04:13;17.80;38.00
73121;DHT22;61307;49.628;-1.624;2023-02-15T01:06:41;17.80;37.90
73121;DHT22;61307;49.628;-1.624;2023-02-15T01:09:10;17.80;37.90
73121;DHT22;61307;49.628;-1.624;2023-02-15T01:11:39;17.80;37.90
73121;DHT22;61307;49.628;-1.624;2023-02-15T01:14:06;17.80;37.90
73121;DHT22;61307;49.628;-1.624;2023-02-15T01:16:33;17.80;37.90
73121;DHT22;61307;49.628;-1.624;2023-02-15T01:19:00;17.80;37.90
73121;DHT22;61307;49.628;-1.624;2023-02-15T01:21:29;17.80;37.90
73121;DHT22;61307;49.628;-1.624;2023-02-15T01:23:56;17.80;37.90
73121;DHT22;61307;49.628;-1.624;2023-02-15T01:26:24;17.80;37.90
73121;DHT22;61307;49.628;-1.624;2023-02-15T01:28:51;17.70;37.80
73121;DHT22;61307;49.628;-1.624;2023-02-15T01:31:20;17.70;37.80
73121;DHT22;61307;49.628;-1.624;2023-02-15T01:33:47;17.70;37.80
73121;DHT22;61307;49.628;-1.624;2023-02-15T01:36:14;17.70;37.80
73121;DHT22;61307;49.628;-1.624;2023-02-15T01:38:42;17.70;37.80
73121;DHT22;61307;49.628;-1.624;2023-02-15T01:41:09;17.70;37.80
73121;DHT22;61307;49.628;-1.624;2023-02-15T01:43:55;17.70;37.80
73121;DHT22;61307;49.628;-1.624;2023-02-15T01:46:26;17.70;37.80
73121;DHT22;61307;49.628;-1.624;2023-02-15T01:48:56;17.70;37.80
73121;DHT22;61307;49.628;-1.624;2023-02-15T01:51:27;17.70;37.80
73121;DHT22;61307;49.628;-1.624;2023-02-15T01:53:59;17.70;37.80
73121;DHT22;61307;49.628;-1.624;2023-02-15T01:56:31;17.70;37.80
73121;DHT22;61307;49.628;-1.624;2023-02-15T01:59:04;17.70;37.80
73121;DHT22;61307;49.628;-1.624;2023-02-15T02:01:33;17.70;37.80
73121;DHT22;61307;49.628;-1.624;2023-02-15T02:04:07;17.60;37.70
73121;DHT22;61307;49.628;-1.624;2023-02-15T02:06:37;17.60;37.70
73121;DHT22;61307;49.628;-1.624;2023-02-15T02:09:06;17.60;37.70
73121;DHT22;61307;49.628;-1.624;2023-02-15T02:11:34;17.60;37.70
73121;DHT22;61307;49.628;-1.624;2023-02-15T02:14:03;17.70;37.80
73121;DHT22;61307;49.628;-1.624;2023-02-15T02:16:38;17.60;37.70
73121;DHT22;61307;49.628;-1.624;2023-02-15T02:19:30;17.70;37.80
73121;DHT22;61307;49.628;-1.624;2023-02-15T02:22:33;17.60;37.60
73121;DHT22;61307;49.628;-1.624;2023-02-15T02:25:28;17.60;37.60
73121;DHT22;61307;49.628;-1.624;2023-02-15T02:28:16;17.60;37.60
73121;DHT22;61307;49.628;-1.624;2023-02-15T02:31:24;17.60;37.60
73121;DHT22;61307;49.628;-1.624;2023-02-15T02:34:01;17.60;37.50
73121;DHT22;61307;49.628;-1.624;2023-02-15T02:36:35;17.60;37.60
73121;DHT22;61307;49.628;-1.624;2023-02-15T02:39:15;17.60;37.60
73121;DHT22;61307;49.628;-1.624;2023-02-15T02:41:50;17.50;37.50
73121;DHT22;61307;49.628;-1.624;2023-02-15T02:44:24;17.60;37.60
73121;DHT22;61307;49.628;-1.624;2023-02-15T02:46:54;17.50;37.50
73121;DHT22;61307;49.628;-1.624;2023-02-15T02:49:34;17.50;37.50
73121;DHT22;61307;49.628;-1.624;2023-02-15T02:52:04;17.50;37.50
73121;DHT22;61307;49.628;-1.624;2023-02-15T02:54:33;17.50;37.50
73121;DHT22;61307;49.628;-1.624;2023-02-15T02:57:04;17.50;37.50
73121;DHT22;61307;49.628;-1.624;2023-02-15T02:59:34;17.50;37.50
73121;DHT22;61307;49.628;-1.624;2023-02-15T03:02:06;17.50;37.50
73121;DHT22;61307;49.628;-1.624;2023-02-15T03:04:43;17.50;37.50
73121;DHT22;61307;49.628;-1.624;2023-02-15T03:07:16;17.50;37.40
73121;DHT22;61307;49.628;-1.624;2023-02-15T03:09:50;17.50;37.40
73121;DHT22;61307;49.628;-1.624;2023-02-15T03:12:20;17.50;37.40
73121;DHT22;61307;49.628;-1.624;2023-02-15T03:14:50;17.50;37.40
73121;DHT22;61307;49.628;-1.624;2023-02-15T03:17:20;17.50;37.40
73121;DHT22;61307;49.628;-1.624;2023-02-15T03:19:53;17.50;37.40
73121;DHT22;61307;49.628;-1.624;2023-02-15T03:22:28;17.50;37.40
73121;DHT22;61307;49.628;-1.624;2023-02-15T03:24:57;17.50;37.30
73121;DHT22;61307;49.628;-1.624;2023-02-15T03:27:30;17.50;38.10
73121;DHT22;61307;49.628;-1.624;2023-02-15T03:29:59;17.50;37.30
73121;DHT22;61307;49.628;-1.624;2023-02-15T03:32:29;17.50;37.40
73121;DHT22;61307;49.628;-1.624;2023-02-15T03:35:00;17.50;37.30
73121;DHT22;61307;49.628;-1.624;2023-02-15T03:37:32;17.50;37.30
73121;DHT22;61307;49.628;-1.624;2023-02-15T03:40:06;17.50;37.30
73121;DHT22;61307;49.628;-1.624;2023-02-15T03:42:53;17.40;37.20
73121;DHT22;61307;49.628;-1.624;2023-02-15T03:45:25;17.40;37.20
73121;DHT22;61307;49.628;-1.624;2023-02-15T03:47:56;17.40;37.20
73121;DHT22;61307;49.628;-1.624;2023-02-15T03:50:29;17.40;37.20
73121;DHT22;61307;49.628;-1.624;2023-02-15T03:53:16;17.40;37.20
73121;DHT22;61307;49.628;-1.624;2023-02-15T03:55:47;17.40;37.20
73121;DHT22;61307;49.628;-1.624;2023-02-15T03:58:14;17.40;37.20
73121;DHT22;61307;49.628;-1.624;2023-02-15T04:01:00;17.40;37.20
73121;DHT22;61307;49.628;-1.624;2023-02-15T04:03:51;17.40;37.20
73121;DHT22;61307;49.628;-1.624;2023-02-15T04:06:21;17.40;37.20
73121;DHT22;61307;49.628;-1.624;2023-02-15T04:08:48;17.40;37.10
73121;DHT22;61307;49.628;-1.624;2023-02-15T04:11:33;17.40;37.10
73121;DHT22;61307;49.628;-1.624;2023-02-15T04:14:00;17.40;37.10
73121;DHT22;61307;49.628;-1.624;2023-02-15T04:16:47;17.40;37.10
73121;DHT22;61307;49.628;-1.624;2023-02-15T04:19:13;17.40;37.10
73121;DHT22;61307;49.628;-1.624;2023-02-15T04:21:59;17.40;37.10
73121;DHT22;61307;49.628;-1.624;2023-02-15T04:24:43;17.30;37.10
73121;DHT22;61307;49.628;-1.624;2023-02-15T04:27:27;17.40;37.10
73121;DHT22;61307;49.628;-1.624;2023-02-15T04:29:54;17.40;37.80
73121;DHT22;61307;49.628;-1.624;2023-02-15T04:32:21;17.40;37.10
73121;DHT22;61307;49.628;-1.624;2023-02-15T04:34:49;17.30;37.00
73121;DHT22;61307;49.628;-1.624;2023-02-15T04:37:17;17.40;37.10
73121;DHT22;61307;49.628;-1.624;2023-02-15T04:39:44;17.30;37.00
73121;DHT22;61307;49.628;-1.624;2023-02-15T04:42:11;17.30;37.00
73121;DHT22;61307;49.628;-1.624;2023-02-15T04:44:39;17.30;37.00
73121;DHT22;61307;49.628;-1.624;2023-02-15T04:47:06;17.30;37.00
73121;DHT22;61307;49.628;-1.624;2023-02-15T04:49:33;17.30;37.00
73121;DHT22;61307;49.628;-1.624;2023-02-15T04:52:00;17.30;37.00
73121;DHT22;61307;49.628;-1.624;2023-02-15T04:54:29;17.30;37.00
73121;DHT22;61307;49.628;-1.624;2023-02-15T04:56:56;17.30;37.00
73121;DHT22;61307;49.628;-1.624;2023-02-15T04:59:23;17.30;37.60
73121;DHT22;61307;49.628;-1.624;2023-02-15T05:01:51;17.30;37.00
73121;DHT22;61307;49.628;-1.624;2023-02-15T05:04:18;17.30;37.00
73121;DHT22;61307;49.628;-1.624;2023-02-15T05:06:45;17.30;37.00
73121;DHT22;61307;49.628;-1.624;2023-02-15T05:09:12;17.30;37.00
73121;DHT22;61307;49.628;-1.624;2023-02-15T05:11:41;17.30;37.00
73121;DHT22;61307;49.628;-1.624;2023-02-15T05:14:08;17.30;37.00
73121;DHT22;61307;49.628;-1.624;2023-02-15T05:16:36;17.30;37.00
73121;DHT22;61307;49.628;-1.624;2023-02-15T05:19:03;17.30;37.00
73121;DHT22;61307;49.628;-1.624;2023-02-15T05:21:31;17.20;36.90
73121;DHT22;61307;49.628;-1.624;2023-02-15T05:23:58;17.30;37.00
73121;DHT22;61307;49.628;-1.624;2023-02-15T05:26:25;17.20;36.90
73121;DHT22;61307;49.628;-1.624;2023-02-15T05:29:12;17.20;36.90
73121;DHT22;61307;49.628;-1.624;2023-02-15T05:31:39;17.30;37.00
73121;DHT22;61307;49.628;-1.624;2023-02-15T05:34:07;17.30;37.00
73121;DHT22;61307;49.628;-1.624;2023-02-15T05:36:34;17.20;36.90
73121;DHT22;61307;49.628;-1.624;2023-02-15T05:39:01;17.20;36.90
73121;DHT22;61307;49.628;-1.624;2023-02-15T05:41:31;17.20;36.90
73121;DHT22;61307;49.628;-1.624;2023-02-15T05:43:58;17.20;36.90
73121;DHT22;61307;49.628;-1.624;2023-02-15T05:46:27;17.20;36.90
73121;DHT22;61307;49.628;-1.624;2023-02-15T05:48:54;17.20;37.00
73121;DHT22;61307;49.628;-1.624;2023-02-15T05:51:21;17.30;37.00
73121;DHT22;61307;49.628;-1.624;2023-02-15T05:53:48;17.20;36.90
73121;DHT22;61307;49.628;-1.624;2023-02-15T05:56:15;17.20;36.90
73121;DHT22;61307;49.628;-1.624;2023-02-15T05:58:43;17.20;37.00
73121;DHT22;61307;49.628;-1.624;2023-02-15T06:01:11;17.30;37.10
73121;DHT22;61307;49.628;-1.624;2023-02-15T06:03:40;17.30;37.10
73121;DHT22;61307;49.628;-1.624;2023-02-15T06:06:08;17.30;37.20
73121;DHT22;61307;49.628;-1.624;2023-02-15T06:08:36;17.30;37.20
73121;DHT22;61307;49.628;-1.624;2023-02-15T06:11:04;17.30;37.20
73121;DHT22;61307;49.628;-1.624;2023-02-15T06:13:32;17.30;37.20
73121;DHT22;61307;49.628;-1.624;2023-02-15T06:15:59;17.30;37.30
73121;DHT22;61307;49.628;-1.624;2023-02-15T06:18:27;17.40;37.40
73121;DHT22;61307;49.628;-1.624;2023-02-15T06:20:56;17.40;37.40
73121;DHT22;61307;49.628;-1.624;2023-02-15T06:23:24;17.40;37.40
73121;DHT22;61307;49.628;-1.624;2023-02-15T06:25:51;17.40;37.40
73121;DHT22;61307;49.628;-1.624;2023-02-15T06:28:18;17.50;37.50
73121;DHT22;61307;49.628;-1.624;2023-02-15T06:30:46;17.50;37.50
73121;DHT22;61307;49.628;-1.624;2023-02-15T06:33:13;17.50;37.60
73121;DHT22;61307;49.628;-1.624;2023-02-15T06:35:40;17.50;37.60
73121;DHT22;61307;49.628;-1.624;2023-02-15T06:38:09;17.50;37.60
73121;DHT22;61307;49.628;-1.624;2023-02-15T06:40:36;17.50;37.60
73121;DHT22;61307;49.628;-1.624;2023-02-15T06:43:03;17.50;37.60
73121;DHT22;61307;49.628;-1.624;2023-02-15T06:45:30;17.50;37.50
73121;DHT22;61307;49.628;-1.624;2023-02-15T06:47:57;17.60;37.70
73121;DHT22;61307;49.628;-1.624;2023-02-15T06:50:24;17.60;38.40
73121;DHT22;61307;49.628;-1.624;2023-02-15T06:52:55;17.60;39.40
73121;DHT22;61307;49.628;-1.624;2023-02-15T06:55:24;17.60;40.30
73121;DHT22;61307;49.628;-1.624;2023-02-15T06:57:52;17.60;39.70
73121;DHT22;61307;49.628;-1.624;2023-02-15T07:00:19;17.60;39.40
73121;DHT22;61307;49.628;-1.624;2023-02-15T07:02:53;17.70;39.40
73121;DHT22;61307;49.628;-1.624;2023-02-15T07:05:23;17.70;39.40
73121;DHT22;61307;49.628;-1.624;2023-02-15T07:07:50;17.70;39.30
73121;DHT22;61307;49.628;-1.624;2023-02-15T07:10:17;17.70;39.20
73121;DHT22;61307;49.628;-1.624;2023-02-15T07:12:46;17.70;39.10
73121;DHT22;61307;49.628;-1.624;2023-02-15T07:15:14;17.80;39.10
73121;DHT22;61307;49.628;-1.624;2023-02-15T07:17:42;17.70;39.10
73121;DHT22;61307;49.628;-1.624;2023-02-15T07:20:14;17.80;39.10
73121;DHT22;61307;49.628;-1.624;2023-02-15T07:22:42;17.80;39.00
73121;DHT22;61307;49.628;-1.624;2023-02-15T07:25:10;17.80;39.00
73121;DHT22;61307;49.628;-1.624;2023-02-15T07:27:39;17.80;39.00
73121;DHT22;61307;49.628;-1.624;2023-02-15T07:30:10;17.80;39.00
73121;DHT22;61307;49.628;-1.624;2023-02-15T07:32:38;17.80;38.90
73121;DHT22;61307;49.628;-1.624;2023-02-15T07:35:26;17.80;38.90
73121;DHT22;61307;49.628;-1.624;2023-02-15T07:37:54;17.80;38.90
73121;DHT22;61307;49.628;-1.624;2023-02-15T07:40:21;17.90;38.90
73121;DHT22;61307;49.628;-1.624;2023-02-15T07:42:49;17.90;38.90
73121;DHT22;61307;49.628;-1.624;2023-02-15T07:45:21;17.90;38.90
73121;DHT22;61307;49.628;-1.624;2023-02-15T07:47:49;17.90;38.90
73121;DHT22;61307;49.628;-1.624;2023-02-15T07:50:16;17.90;38.90
73121;DHT22;61307;49.628;-1.624;2023-02-15T07:52:44;17.90;38.70
73121;DHT22;61307;49.628;-1.624;2023-02-15T07:55:12;17.90;38.60
73121;DHT22;61307;49.628;-1.624;2023-02-15T07:57:44;17.90;38.50
73121;DHT22;61307;49.628;-1.624;2023-02-15T08:00:18;17.90;38.50
73121;DHT22;61307;49.628;-1.624;2023-02-15T08:02:52;17.90;38.60
73121;DHT22;61307;49.628;-1.624;2023-02-15T08:05:39;17.90;38.60
73121;DHT22;61307;49.628;-1.624;2023-02-15T08:08:10;17.90;38.60
73121;DHT22;61307;49.628;-1.624;2023-02-15T08:10:58;17.90;38.60
73121;DHT22;61307;49.628;-1.624;2023-02-15T08:13:43;17.90;38.60
73121;DHT22;61307;49.628;-1.624;2023-02-15T08:16:23;17.90;38.60
73121;DHT22;61307;49.628;-1.624;2023-02-15T08:18:54;18.00;38.70
73121;DHT22;61307;49.628;-1.624;2023-02-15T08:21:22;17.90;38.60
73121;DHT22;61307;49.628;-1.624;2023-02-15T08:23:50;18.00;38.60
73121;DHT22;61307;49.628;-1.624;2023-02-15T08:26:17;18.00;38.60
73121;DHT22;61307;49.628;-1.624;2023-02-15T08:28:46;18.00;38.70
73121;DHT22;61307;49.628;-1.624;2023-02-15T08:31:14;18.00;38.70
73121;DHT22;61307;49.628;-1.624;2023-02-15T08:33:43;18.10;38.80
73121;DHT22;61307;49.628;-1.624;2023-02-15T08:36:14;18.10;38.70
73121;DHT22;61307;49.628;-1.624;2023-02-15T08:38:43;18.10;38.70
73121;DHT22;61307;49.628;-1.624;2023-02-15T08:41:13;18.20;38.70
73121;DHT22;61307;49.628;-1.624;2023-02-15T08:43:41;18.20;38.70
73121;DHT22;61307;49.628;-1.624;2023-02-15T08:46:10;18.20;38.70
73121;DHT22;61307;49.628;-1.624;2023-02-15T08:48:38;18.20;38.70
73121;DHT22;61307;49.628;-1.624;2023-02-15T08:51:07;18.20;38.70
73121;DHT22;61307;49.628;-1.624;2023-02-15T08:53:38;18.30;38.90
73121;DHT22;61307;49.628;-1.624;2023-02-15T08:56:06;18.30;38.90
73121;DHT22;61307;49.628;-1.624;2023-02-15T08:58:34;18.30;38.90
73121;DHT22;61307;49.628;-1.624;2023-02-15T09:01:07;18.30;38.90
73121;DHT22;61307;49.628;-1.624;2023-02-15T09:03:35;18.30;39.30
73121;DHT22;61307;49.628;-1.624;2023-02-15T09:06:02;18.40;39.30
73121;DHT22;61307;49.628;-1.624;2023-02-15T09:08:33;18.40;39.20
73121;DHT22;61307;49.628;-1.624;2023-02-15T09:11:10;18.40;39.80
73121;DHT22;61307;49.628;-1.624;2023-02-15T09:13:37;18.40;39.10
73121;DHT22;61307;49.628;-1.624;2023-02-15T09:16:07;18.40;39.10
73121;DHT22;61307;49.628;-1.624;2023-02-15T09:18:36;18.40;39.00
73121;DHT22;61307;49.628;-1.624;2023-02-15T09:21:06;18.40;38.90
73121;DHT22;61307;49.628;-1.624;2023-02-15T09:23:34;18.40;39.00
73121;DHT22;61307;49.628;-1.624;2023-02-15T09:26:04;18.50;39.00
73121;DHT22;61307;49.628;-1.624;2023-02-15T09:28:34;18.40;38.90
73121;DHT22;61307;49.628;-1.624;2023-02-15T09:31:06;18.50;39.00
73121;DHT22;61307;49.628;-1.624;2023-02-15T09:33:34;18.40;38.90
73121;DHT22;61307;49.628;-1.624;2023-02-15T09:36:02;18.40;38.90
73121;DHT22;61307;49.628;-1.624;2023-02-15T09:38:29;18.50;39.00
73121;DHT22;61307;49.628;-1.624;2023-02-15T09:41:08;18.40;38.90
73121;DHT22;61307;49.628;-1.624;2023-02-15T09:43:43;18.50;39.00
73121;DHT22;61307;49.628;-1.624;2023-02-15T09:46:40;18.50;39.00
73121;DHT22;61307;49.628;-1.624;2023-02-15T09:49:18;18.50;39.00
73121;DHT22;61307;49.628;-1.624;2023-02-15T09:52:22;18.50;39.00
73121;DHT22;61307;49.628;-1.624;2023-02-15T09:55:07;18.40;38.90
73121;DHT22;61307;49.628;-1.624;2023-02-15T09:57:41;18.50;39.00
73121;DHT22;61307;49.628;-1.624;2023-02-15T10:00:16;18.50;39.00
73121;DHT22;61307;49.628;-1.624;2023-02-15T10:03:06;18.50;38.90
73121;DHT22;61307;49.628;-1.624;2023-02-15T10:05:43;18.50;39.00
73121;DHT22;61307;49.628;-1.624;2023-02-15T10:11:17;18.50;39.00
73121;DHT22;61307;49.628;-1.624;2023-02-15T10:14:17;18.50;39.00
73121;DHT22;61307;49.628;-1.624;2023-02-15T10:16:54;18.50;39.00
73121;DHT22;61307;49.628;-1.624;2023-02-15T10:19:31;18.50;39.00
73121;DHT22;61307;49.628;-1.624;2023-02-15T10:22:10;18.50;39.00
73121;DHT22;61307;49.628;-1.624;2023-02-15T10:25:04;18.60;39.10
73121;DHT22;61307;49.628;-1.624;2023-02-15T10:27:43;18.60;39.20
73121;DHT22;61307;49.628;-1.624;2023-02-15T10:30:13;18.60;39.20
73121;DHT22;61307;49.628;-1.624;2023-02-15T10:32:49;18.60;39.20
73121;DHT22;61307;49.628;-1.624;2023-02-15T10:35:23;18.60;39.20
73121;DHT22;61307;49.628;-1.624;2023-02-15T10:38:17;18.60;39.20
73121;DHT22;61307;49.628;-1.624;2023-02-15T10:41:07;18.60;39.20
73121;DHT22;61307;49.628;-1.624;2023-02-15T10:43:58;18.60;39.20
73121;DHT22;61307;49.628;-1.624;2023-02-15T10:46:46;18.60;39.20
73121;DHT22;61307;49.628;-1.624;2023-02-15T10:49:37;18.60;39.20
73121;DHT22;61307;49.628;-1.624;2023-02-15T10:52:16;18.60;39.20
73121;DHT22;61307;49.628;-1.624;2023-02-15T10:54:50;18.60;39.30
73121;DHT22;61307;49.628;-1.624;2023-02-15T10:57:22;18.60;39.30
73121;DHT22;61307;49.628;-1.624;2023-02-15T11:00:02;18.70;39.30
73121;DHT22;61307;49.628;-1.624;2023-02-15T11:02:45;18.70;39.30
73121;DHT22;61307;49.628;-1.624;2023-02-15T11:05:37;18.70;39.40
73121;DHT22;61307;49.628;-1.624;2023-02-15T11:08:09;18.70;39.40
73121;DHT22;61307;49.628;-1.624;2023-02-15T11:10:39;18.70;39.50
73121;DHT22;61307;49.628;-1.624;2023-02-15T11:13:11;18.80;39.60
73121;DHT22;61307;49.628;-1.624;2023-02-15T11:15:43;18.80;39.70
73121;DHT22;61307;49.628;-1.624;2023-02-15T11:18:16;18.80;39.60
73121;DHT22;61307;49.628;-1.624;2023-02-15T11:20:53;18.80;39.60
73121;DHT22;61307;49.628;-1.624;2023-02-15T11:23:24;18.80;39.70
73121;DHT22;61307;49.628;-1.624;2023-02-15T11:25:56;18.80;39.70
73121;DHT22;61307;49.628;-1.624;2023-02-15T11:28:27;18.80;39.80
73121;DHT22;61307;49.628;-1.624;2023-02-15T11:30:57;18.90;39.90
73121;DHT22;61307;49.628;-1.624;2023-02-15T11:33:40;18.90;39.90
73121;DHT22;61307;49.628;-1.624;2023-02-15T11:36:15;18.90;40.00
73121;DHT22;61307;49.628;-1.624;2023-02-15T11:38:46;18.90;40.10
73121;DHT22;61307;49.628;-1.624;2023-02-15T11:41:19;18.90;40.10
73121;DHT22;61307;49.628;-1.624;2023-02-15T11:43:56;18.90;40.10
73121;DHT22;61307;49.628;-1.624;2023-02-15T11:46:28;18.90;40.10
73121;DHT22;61307;49.628;-1.624;2023-02-15T11:48:56;18.90;40.10
73121;DHT22;61307;49.628;-1.624;2023-02-15T11:51:27;18.90;40.10
73121;DHT22;61307;49.628;-1.624;2023-02-15T11:53:54;18.90;40.10
73121;DHT22;61307;49.628;-1.624;2023-02-15T11:56:24;18.90;40.10
73121;DHT22;61307;49.628;-1.624;2023-02-15T11:58:55;18.90;40.10
73121;DHT22;61307;49.628;-1.624;2023-02-15T12:01:28;18.90;40.10
73121;DHT22;61307;49.628;-1.624;2023-02-15T12:03:59;18.90;40.10
73121;DHT22;61307;49.628;-1.624;2023-02-15T12:06:32;18.90;40.10
73121;DHT22;61307;49.628;-1.624;2023-02-15T12:09:04;18.90;40.10
73121;DHT22;61307;49.628;-1.624;2023-02-15T12:11:36;18.90;40.10
73121;DHT22;61307;49.628;-1.624;2023-02-15T12:14:05;18.90;40.20
73121;DHT22;61307;49.628;-1.624;2023-02-15T12:16:41;18.90;40.20
73121;DHT22;61307;49.628;-1.624;2023-02-15T12:19:27;18.90;40.40
73121;DHT22;61307;49.628;-1.624;2023-02-15T12:21:57;18.90;40.40
73121;DHT22;61307;49.628;-1.624;2023-02-15T12:24:26;18.90;40.40
73121;DHT22;61307;49.628;-1.624;2023-02-15T12:27:01;18.90;40.40
73121;DHT22;61307;49.628;-1.624;2023-02-15T12:29:31;18.90;40.40
73121;DHT22;61307;49.628;-1.624;2023-02-15T12:32:03;19.00;40.50
73121;DHT22;61307;49.628;-1.624;2023-02-15T12:34:35;19.00;40.50
73121;DHT22;61307;49.628;-1.624;2023-02-15T12:37:15;19.00;40.50
73121;DHT22;61307;49.628;-1.624;2023-02-15T12:39:52;19.00;40.50
73121;DHT22;61307;49.628;-1.624;2023-02-15T12:42:20;18.90;40.40
73121;DHT22;61307;49.628;-1.624;2023-02-15T12:44:57;19.00;40.50
73121;DHT22;61307;49.628;-1.624;2023-02-15T12:47:26;19.00;40.50
73121;DHT22;61307;49.628;-1.624;2023-02-15T12:50:07;19.00;40.50
73121;DHT22;61307;49.628;-1.624;2023-02-15T12:52:44;19.00;40.50
73121;DHT22;61307;49.628;-1.624;2023-02-15T12:55:19;19.00;40.50
73121;DHT22;61307;49.628;-1.624;2023-02-15T12:57:47;19.00;40.50
73121;DHT22;61307;49.628;-1.624;2023-02-15T13:00:27;19.00;40.50
73121;DHT22;61307;49.628;-1.624;2023-02-15T13:02:58;19.00;40.50
73121;DHT22;61307;49.628;-1.624;2023-02-15T13:05:31;19.00;40.50
73121;DHT22;61307;49.628;-1.624;2023-02-15T13:08:02;19.00;40.50
73121;DHT22;61307;49.628;-1.624;2023-02-15T13:10:35;19.00;40.60
73121;DHT22;61307;49.628;-1.624;2023-02-15T13:13:09;19.10;40.60
73121;DHT22;61307;49.628;-1.624;2023-02-15T13:15:39;19.10;40.60
73121;DHT22;61307;49.628;-1.624;2023-02-15T13:18:13;19.10;40.60
73121;DHT22;61307;49.628;-1.624;2023-02-15T13:20:43;19.10;40.60
73121;DHT22;61307;49.628;-1.624;2023-02-15T13:23:22;19.20;40.70
73121;DHT22;61307;49.628;-1.624;2023-02-15T13:25:54;19.10;40.70
73121;DHT22;61307;49.628;-1.624;2023-02-15T13:28:26;19.20;40.80
73121;DHT22;61307;49.628;-1.624;2023-02-15T13:30:55;19.20;40.80
73121;DHT22;61307;49.628;-1.624;2023-02-15T13:33:29;19.20;40.80
73121;DHT22;61307;49.628;-1.624;2023-02-15T13:36:04;19.20;40.90
73121;DHT22;61307;49.628;-1.624;2023-02-15T13:38:55;19.30;41.10
73121;DHT22;61307;49.628;-1.624;2023-02-15T13:41:29;19.30;41.20
73121;DHT22;61307;49.628;-1.624;2023-02-15T13:44:05;19.30;41.20
73121;DHT22;61307;49.628;-1.624;2023-02-15T13:46:45;19.40;41.30
73121;DHT22;61307;49.628;-1.624;2023-02-15T13:49:36;19.40;41.30
73121;DHT22;61307;49.628;-1.624;2023-02-15T13:52:16;19.40;41.30
73121;DHT22;61307;49.628;-1.624;2023-02-15T13:58:18;19.40;41.40
73121;DHT22;61307;49.628;-1.624;2023-02-15T14:01:09;19.40;41.50
73121;DHT22;61307;49.628;-1.624;2023-02-15T14:10:10;19.50;42.20
73121;DHT22;61307;49.628;-1.624;2023-02-15T14:12:58;19.60;42.30
73121;DHT22;61307;49.628;-1.624;2023-02-15T14:15:38;19.60;42.30
73121;DHT22;61307;49.628;-1.624;2023-02-15T14:18:21;19.60;42.20
73121;DHT22;61307;49.628;-1.624;2023-02-15T14:21:01;19.60;42.20
73121;DHT22;61307;49.628;-1.624;2023-02-15T14:23:53;19.60;42.00
73121;DHT22;61307;49.628;-1.624;2023-02-15T14:26:43;19.60;42.00
73121;DHT22;61307;49.628;-1.624;2023-02-15T14:29:24;19.70;42.10
73121;DHT22;61307;49.628;-1.624;2023-02-15T14:31:58;19.60;41.90
73121;DHT22;61307;49.628;-1.624;2023-02-15T14:34:56;19.60;41.90
73121;DHT22;61307;49.628;-1.624;2023-02-15T14:37:37;19.70;42.00
73121;DHT22;61307;49.628;-1.624;2023-02-15T14:40:15;19.70;41.90
73121;DHT22;61307;49.628;-1.624;2023-02-15T14:43:09;19.70;41.90
73121;DHT22;61307;49.628;-1.624;2023-02-15T14:45:45;19.90;42.10
73121;DHT22;61307;49.628;-1.624;2023-02-15T14:48:19;20.00;41.50
73121;DHT22;61307;49.628;-1.624;2023-02-15T14:50:48;20.10;41.40
73121;DHT22;61307;49.628;-1.624;2023-02-15T14:53:18;20.20;41.30
73121;DHT22;61307;49.628;-1.624;2023-02-15T14:56:05;20.20;41.20
73121;DHT22;61307;49.628;-1.624;2023-02-15T14:58:36;20.20;41.10
73121;DHT22;61307;49.628;-1.624;2023-02-15T15:01:05;20.30;41.10
73121;DHT22;61307;49.628;-1.624;2023-02-15T15:03:33;20.30;41.00
73121;DHT22;61307;49.628;-1.624;2023-02-15T15:06:03;20.30;41.00
73121;DHT22;61307;49.628;-1.624;2023-02-15T15:08:34;20.30;41.10
73121;DHT22;61307;49.628;-1.624;2023-02-15T15:11:38;20.30;41.00
73121;DHT22;61307;49.628;-1.624;2023-02-15T15:14:10;20.30;41.10
73121;DHT22;61307;49.628;-1.624;2023-02-15T15:16:48;20.40;41.30
73121;DHT22;61307;49.628;-1.624;2023-02-15T15:22:31;20.40;41.20
73121;DHT22;61307;49.628;-1.624;2023-02-15T15:25:00;20.40;41.40
73121;DHT22;61307;49.628;-1.624;2023-02-15T15:27:47;20.40;41.30
73121;DHT22;61307;49.628;-1.624;2023-02-15T15:34:13;20.40;41.20
73121;DHT22;61307;49.628;-1.624;2023-02-15T15:40:13;20.40;41.70
73121;DHT22;61307;49.628;-1.624;2023-02-15T15:42:50;20.50;41.60
73121;DHT22;61307;49.628;-1.624;2023-02-15T15:45:34;20.40;41.40
73121;DHT22;61307;49.628;-1.624;2023-02-15T15:48:26;20.50;41.50
73121;DHT22;61307;49.628;-1.624;2023-02-15T15:51:00;20.50;41.50
73121;DHT22;61307;49.628;-1.624;2023-02-15T15:53:32;20.50;41.60
73121;DHT22;61307;49.628;-1.624;2023-02-15T15:56:03;20.50;41.40
73121;DHT22;61307;49.628;-1.624;2023-02-15T15:58:33;20.50;41.30
73121;DHT22;61307;49.628;-1.624;2023-02-15T16:01:04;20.50;41.50
73121;DHT22;61307;49.628;-1.624;2023-02-15T16:03:33;20.50;41.40
73121;DHT22;61307;49.628;-1.624;2023-02-15T16:06:03;20.50;41.30
73121;DHT22;61307;49.628;-1.624;2023-02-15T16:08:31;20.60;41.20
73121;DHT22;61307;49.628;-1.624;2023-02-15T16:11:13;20.60;41.10
73121;DHT22;61307;49.628;-1.624;2023-02-15T16:13:41;20.60;40.90